sensor_id;sensor_type;location;lat;lon;timestamp;P1;durP1;ratioP1;P2;durP2;ratioP2
36995;SDS011;22905;50.340;10.776;2023-09-18T00:02:27;11.88;;;7.50;;
36995;SDS011;22905;50.340;10.776;2023-09-18T00:07:29;11.10;;;8.30;;
36995;SDS011;22905;50.340;10.776;2023-09-18T00:12:29;13.02;;;7.85;;
36995;SDS011;22905;50.340;10.776;2023-09-18T00:17:30;11.57;;;8.03;;
36995;SDS011;22905;50.340;10.776;2023-09-18T00:22:30;10.10;;;7.07;;
36995;SDS011;22905;50.340;10.776;2023-09-18T00:27:31;12.90;;;7.30;;
36995;SDS011;22905;50.340;10.776;2023-09-18T00:32:32;9.07;;;6.90;;
36995;SDS011;22905;50.340;10.776;2023-09-18T00:37:33;9.40;;;7.65;;
36995;SDS011;22905;50.340;10.776;2023-09-18T00:42:33;13.30;;;8.50;;
36995;SDS011;22905;50.340;10.776;2023-09-18T00:47:33;13.40;;;8.82;;
36995;SDS011;22905;50.340;10.776;2023-09-18T00:52:34;10.25;;;7.75;;
36995;SDS011;22905;50.340;10.776;2023-09-18T00:57:34;9.02;;;7.53;;
36995;SDS011;22905;50.340;10.776;2023-09-18T01:02:34;11.13;;;7.32;;
36995;SDS011;22905;50.340;10.776;2023-09-18T01:07:35;8.90;;;7.70;;
36995;SDS011;22905;50.340;10.776;2023-09-18T01:12:47;11.48;;;8.65;;
36995;SDS011;22905;50.340;10.776;2023-09-18T01:17:52;10.30;;;8.57;;
36995;SDS011;22905;50.340;10.776;2023-09-18T01:22:53;12.27;;;8.15;;
36995;SDS011;22905;50.340;10.776;2023-09-18T01:27:53;11.23;;;7.63;;
36995;SDS011;22905;50.340;10.776;2023-09-18T01:32:54;13.53;;;7.90;;
36995;SDS011;22905;50.340;10.776;2023-09-18T01:37:55;12.07;;;8.70;;
36995;SDS011;22905;50.340;10.776;2023-09-18T01:42:56;9.68;;;7.75;;
36995;SDS011;22905;50.340;10.776;2023-09-18T01:47:57;11.13;;;7.97;;
36995;SDS011;22905;50.340;10.776;2023-09-18T01:52:58;9.33;;;7.47;;
36995;SDS011;22905;50.340;10.776;2023-09-18T01:57:59;14.17;;;8.47;;
36995;SDS011;22905;50.340;10.776;2023-09-18T02:02:59;11.25;;;8.20;;
36995;SDS011;22905;50.340;10.776;2023-09-18T02:07:59;13.00;;;8.70;;
36995;SDS011;22905;50.340;10.776;2023-09-18T02:13:00;14.13;;;8.67;;
36995;SDS011;22905;50.340;10.776;2023-09-18T02:18:01;9.95;;;7.60;;
36995;SDS011;22905;50.340;10.776;2023-09-18T02:23:01;9.97;;;7.73;;
36995;SDS011;22905;50.340;10.776;2023-09-18T02:28:01;14.20;;;9.27;;
36995;SDS011;22905;50.340;10.776;2023-09-18T02:33:02;13.25;;;8.15;;
36995;SDS011;22905;50.340;10.776;2023-09-18T02:38:05;13.32;;;8.20;;
36995;SDS011;22905;50.340;10.776;2023-09-18T02:43:05;16.37;;;8.90;;
36995;SDS011;22905;50.340;10.776;2023-09-18T02:48:06;12.77;;;8.48;;
36995;SDS011;22905;50.340;10.776;2023-09-18T02:53:06;10.70;;;7.88;;
36995;SDS011;22905;50.340;10.776;2023-09-18T02:58:08;10.98;;;8.00;;
36995;SDS011;22905;50.340;10.776;2023-09-18T03:03:10;12.98;;;8.90;;
36995;SDS011;22905;50.340;10.776;2023-09-18T03:08:11;10.43;;;6.85;;
36995;SDS011;22905;50.340;10.776;2023-09-18T03:13:14;11.23;;;8.85;;
36995;SDS011;22905;50.340;10.776;2023-09-18T03:18:15;9.20;;;7.55;;
36995;SDS011;22905;50.340;10.776;2023-09-18T03:23:15;11.80;;;8.53;;
36995;SDS011;22905;50.340;10.776;2023-09-18T03:28:15;10.02;;;8.45;;
36995;SDS011;22905;50.340;10.776;2023-09-18T03:33:16;11.07;;;8.00;;
36995;SDS011;22905;50.340;10.776;2023-09-18T03:38:16;13.65;;;8.88;;
36995;SDS011;22905;50.340;10.776;2023-09-18T03:43:17;15.02;;;8.40;;
36995;SDS011;22905;50.340;10.776;2023-09-18T03:48:17;11.68;;;8.15;;
36995;SDS011;22905;50.340;10.776;2023-09-18T03:53:18;8.90;;;7.70;;
36995;SDS011;22905;50.340;10.776;2023-09-18T03:58:18;10.30;;;8.38;;
36995;SDS011;22905;50.340;10.776;2023-09-18T04:03:20;11.57;;;7.75;;
36995;SDS011;22905;50.340;10.776;2023-09-18T04:08:20;13.23;;;7.93;;
36995;SDS011;22905;50.340;10.776;2023-09-18T04:13:20;9.38;;;7.00;;
36995;SDS011;22905;50.340;10.776;2023-09-18T04:18:21;14.52;;;7.68;;
36995;SDS011;22905;50.340;10.776;2023-09-18T04:23:22;9.93;;;8.30;;
36995;SDS011;22905;50.340;10.776;2023-09-18T04:28:23;10.38;;;7.50;;
36995;SDS011;22905;50.340;10.776;2023-09-18T04:33:23;9.83;;;7.73;;
36995;SDS011;22905;50.340;10.776;2023-09-18T04:38:25;8.40;;;6.83;;
36995;SDS011;22905;50.340;10.776;2023-09-18T04:43:25;11.32;;;6.95;;
36995;SDS011;22905;50.340;10.776;2023-09-18T04:48:26;10.82;;;7.85;;
36995;SDS011;22905;50.340;10.776;2023-09-18T04:53:27;8.40;;;7.27;;
36995;SDS011;22905;50.340;10.776;2023-09-18T04:58:27;11.52;;;7.38;;
36995;SDS011;22905;50.340;10.776;2023-09-18T05:03:27;10.50;;;7.33;;
36995;SDS011;22905;50.340;10.776;2023-09-18T05:08:29;10.63;;;7.90;;
36995;SDS011;22905;50.340;10.776;2023-09-18T05:13:29;12.02;;;7.53;;
36995;SDS011;22905;50.340;10.776;2023-09-18T05:18:29;10.50;;;7.83;;
36995;SDS011;22905;50.340;10.776;2023-09-18T05:23:30;10.00;;;7.47;;
36995;SDS011;22905;50.340;10.776;2023-09-18T05:28:30;10.95;;;8.48;;
36995;SDS011;22905;50.340;10.776;2023-09-18T05:33:31;9.77;;;7.90;;
36995;SDS011;22905;50.340;10.776;2023-09-18T05:38:32;10.73;;;7.75;;
36995;SDS011;22905;50.340;10.776;2023-09-18T05:49:28;10.38;;;7.88;;
36995;SDS011;22905;50.340;10.776;2023-09-18T05:54:30;14.35;;;7.68;;
36995;SDS011;22905;50.340;10.776;2023-09-18T05:59:30;9.70;;;7.67;;
36995;SDS011;22905;50.340;10.776;2023-09-18T06:04:31;12.20;;;7.93;;
36995;SDS011;22905;50.340;10.776;2023-09-18T06:09:31;9.37;;;6.80;;
36995;SDS011;22905;50.340;10.776;2023-09-18T06:14:32;10.32;;;7.93;;
36995;SDS011;22905;50.340;10.776;2023-09-18T06:19:35;13.75;;;9.50;;
36995;SDS011;22905;50.340;10.776;2023-09-18T06:24:35;13.32;;;7.88;;
36995;SDS011;22905;50.340;10.776;2023-09-18T06:29:35;13.27;;;8.30;;
36995;SDS011;22905;50.340;10.776;2023-09-18T06:34:38;12.75;;;8.57;;
36995;SDS011;22905;50.340;10.776;2023-09-18T06:39:42;8.20;;;7.35;;
36995;SDS011;22905;50.340;10.776;2023-09-18T06:44:43;10.90;;;7.93;;
36995;SDS011;22905;50.340;10.776;2023-09-18T06:49:43;9.80;;;7.85;;
36995;SDS011;22905;50.340;10.776;2023-09-18T06:54:43;12.25;;;7.95;;
36995;SDS011;22905;50.340;10.776;2023-09-18T06:59:44;11.60;;;7.85;;
36995;SDS011;22905;50.340;10.776;2023-09-18T07:04:44;11.38;;;8.13;;
36995;SDS011;22905;50.340;10.776;2023-09-18T07:09:44;11.73;;;7.93;;
36995;SDS011;22905;50.340;10.776;2023-09-18T07:14:45;10.18;;;7.82;;
36995;SDS011;22905;50.340;10.776;2023-09-18T07:19:46;12.98;;;9.00;;
36995;SDS011;22905;50.340;10.776;2023-09-18T07:24:46;13.40;;;7.82;;
36995;SDS011;22905;50.340;10.776;2023-09-18T07:29:47;9.77;;;7.67;;
36995;SDS011;22905;50.340;10.776;2023-09-18T07:34:47;12.00;;;7.53;;
36995;SDS011;22905;50.340;10.776;2023-09-18T07:39:48;12.23;;;7.60;;
36995;SDS011;22905;50.340;10.776;2023-09-18T07:44:48;8.68;;;6.75;;
36995;SDS011;22905;50.340;10.776;2023-09-18T07:49:49;9.25;;;7.43;;
36995;SDS011;22905;50.340;10.776;2023-09-18T07:54:50;9.02;;;6.63;;
36995;SDS011;22905;50.340;10.776;2023-09-18T07:59:50;10.95;;;6.40;;
36995;SDS011;22905;50.340;10.776;2023-09-18T08:04:51;10.65;;;6.97;;
36995;SDS011;22905;50.340;10.776;2023-09-18T08:09:52;11.02;;;7.22;;
36995;SDS011;22905;50.340;10.776;2023-09-18T08:14:53;9.50;;;6.93;;
36995;SDS011;22905;50.340;10.776;2023-09-18T08:19:53;9.32;;;6.93;;
36995;SDS011;22905;50.340;10.776;2023-09-18T08:24:54;11.48;;;7.03;;
36995;SDS011;22905;50.340;10.776;2023-09-18T08:29:55;7.50;;;6.53;;
36995;SDS011;22905;50.340;10.776;2023-09-18T08:34:55;13.15;;;6.55;;
36995;SDS011;22905;50.340;10.776;2023-09-18T08:39:56;9.55;;;7.78;;
36995;SDS011;22905;50.340;10.776;2023-09-18T08:44:56;9.68;;;7.03;;
36995;SDS011;22905;50.340;10.776;2023-09-18T08:54:58;11.30;;;7.30;;
36995;SDS011;22905;50.340;10.776;2023-09-18T09:00:00;9.50;;;7.70;;
36995;SDS011;22905;50.340;10.776;2023-09-18T09:05:06;13.40;;;8.23;;
36995;SDS011;22905;50.340;10.776;2023-09-18T09:10:07;10.65;;;7.47;;
36995;SDS011;22905;50.340;10.776;2023-09-18T09:15:07;10.25;;;7.03;;
36995;SDS011;22905;50.340;10.776;2023-09-18T09:20:08;9.32;;;7.47;;
36995;SDS011;22905;50.340;10.776;2023-09-18T09:25:22;8.88;;;7.40;;
36995;SDS011;22905;50.340;10.776;2023-09-18T09:30:26;13.65;;;8.05;;
36995;SDS011;22905;50.340;10.776;2023-09-18T09:35:28;13.93;;;7.57;;
36995;SDS011;22905;50.340;10.776;2023-09-18T09:45:31;10.98;;;7.00;;
36995;SDS011;22905;50.340;10.776;2023-09-18T09:50:45;8.63;;;5.95;;
36995;SDS011;22905;50.340;10.776;2023-09-18T09:55:54;8.55;;;6.18;;
36995;SDS011;22905;50.340;10.776;2023-09-18T10:00:54;8.82;;;6.75;;
36995;SDS011;22905;50.340;10.776;2023-09-18T10:05:56;7.33;;;6.13;;
36995;SDS011;22905;50.340;10.776;2023-09-18T10:11:04;10.48;;;6.50;;
36995;SDS011;22905;50.340;10.776;2023-09-18T10:16:12;10.88;;;7.47;;
36995;SDS011;22905;50.340;10.776;2023-09-18T10:21:16;13.70;;;7.63;;
36995;SDS011;22905;50.340;10.776;2023-09-18T10:26:24;11.13;;;6.60;;
36995;SDS011;22905;50.340;10.776;2023-09-18T10:31:29;10.10;;;5.55;;
36995;SDS011;22905;50.340;10.776;2023-09-18T10:36:29;8.57;;;5.45;;
36995;SDS011;22905;50.340;10.776;2023-09-18T10:41:30;10.50;;;5.10;;
36995;SDS011;22905;50.340;10.776;2023-09-18T10:46:30;7.93;;;4.67;;
36995;SDS011;22905;50.340;10.776;2023-09-18T10:51:32;7.90;;;4.90;;
36995;SDS011;22905;50.340;10.776;2023-09-18T10:56:34;8.43;;;4.40;;
36995;SDS011;22905;50.340;10.776;2023-09-18T11:01:34;15.73;;;5.22;;
36995;SDS011;22905;50.340;10.776;2023-09-18T11:17:02;11.73;;;3.78;;
36995;SDS011;22905;50.340;10.776;2023-09-18T11:22:06;12.25;;;3.47;;
36995;SDS011;22905;50.340;10.776;2023-09-18T11:27:10;9.18;;;3.70;;
36995;SDS011;22905;50.340;10.776;2023-09-18T11:32:10;8.90;;;3.20;;
36995;SDS011;22905;50.340;10.776;2023-09-18T11:37:19;8.80;;;3.07;;
36995;SDS011;22905;50.340;10.776;2023-09-18T11:42:23;12.20;;;3.60;;
36995;SDS011;22905;50.340;10.776;2023-09-18T11:47:26;8.65;;;3.65;;
36995;SDS011;22905;50.340;10.776;2023-09-18T11:52:28;13.23;;;3.38;;
36995;SDS011;22905;50.340;10.776;2023-09-18T11:57:29;14.27;;;3.05;;
36995;SDS011;22905;50.340;10.776;2023-09-18T12:02:35;8.65;;;3.17;;
36995;SDS011;22905;50.340;10.776;2023-09-18T12:07:38;11.82;;;3.33;;
36995;SDS011;22905;50.340;10.776;2023-09-18T12:12:39;11.65;;;3.97;;
36995;SDS011;22905;50.340;10.776;2023-09-18T12:22:54;18.48;;;3.70;;
36995;SDS011;22905;50.340;10.776;2023-09-18T12:33:40;11.68;;;3.38;;
36995;SDS011;22905;50.340;10.776;2023-09-18T12:56:31;11.02;;;2.75;;
36995;SDS011;22905;50.340;10.776;2023-09-18T13:01:32;9.13;;;3.90;;
36995;SDS011;22905;50.340;10.776;2023-09-18T13:06:32;9.70;;;3.40;;
36995;SDS011;22905;50.340;10.776;2023-09-18T13:11:32;11.10;;;3.73;;
36995;SDS011;22905;50.340;10.776;2023-09-18T13:16:33;6.80;;;2.75;;
36995;SDS011;22905;50.340;10.776;2023-09-18T13:21:35;13.40;;;4.40;;
36995;SDS011;22905;50.340;10.776;2023-09-18T13:26:36;8.75;;;3.53;;
36995;SDS011;22905;50.340;10.776;2023-09-18T13:31:36;7.45;;;2.45;;
36995;SDS011;22905;50.340;10.776;2023-09-18T13:36:37;7.35;;;3.33;;
36995;SDS011;22905;50.340;10.776;2023-09-18T13:41:38;7.03;;;2.33;;
36995;SDS011;22905;50.340;10.776;2023-09-18T13:46:41;11.15;;;3.30;;
36995;SDS011;22905;50.340;10.776;2023-09-18T13:51:41;7.97;;;2.70;;
36995;SDS011;22905;50.340;10.776;2023-09-18T13:56:41;6.55;;;2.83;;
36995;SDS011;22905;50.340;10.776;2023-09-18T14:01:42;12.47;;;5.53;;
36995;SDS011;22905;50.340;10.776;2023-09-18T14:06:43;6.13;;;2.55;;
36995;SDS011;22905;50.340;10.776;2023-09-18T14:11:43;8.93;;;2.67;;
36995;SDS011;22905;50.340;10.776;2023-09-18T14:16:44;7.73;;;2.13;;
36995;SDS011;22905;50.340;10.776;2023-09-18T14:21:45;3.83;;;2.00;;
36995;SDS011;22905;50.340;10.776;2023-09-18T14:26:45;12.23;;;2.73;;
36995;SDS011;22905;50.340;10.776;2023-09-18T14:31:46;10.07;;;2.35;;
36995;SDS011;22905;50.340;10.776;2023-09-18T14:36:46;5.90;;;2.10;;
36995;SDS011;22905;50.340;10.776;2023-09-18T14:41:47;5.05;;;1.75;;
36995;SDS011;22905;50.340;10.776;2023-09-18T14:46:47;14.65;;;3.10;;
36995;SDS011;22905;50.340;10.776;2023-09-18T14:51:49;10.57;;;4.30;;
36995;SDS011;22905;50.340;10.776;2023-09-18T14:56:50;12.35;;;2.72;;
36995;SDS011;22905;50.340;10.776;2023-09-18T15:01:50;6.95;;;2.88;;
36995;SDS011;22905;50.340;10.776;2023-09-18T15:06:50;9.52;;;2.80;;
36995;SDS011;22905;50.340;10.776;2023-09-18T15:11:51;7.60;;;2.80;;
36995;SDS011;22905;50.340;10.776;2023-09-18T15:16:51;6.97;;;3.23;;
36995;SDS011;22905;50.340;10.776;2023-09-18T15:21:51;11.97;;;3.43;;
36995;SDS011;22905;50.340;10.776;2023-09-18T15:26:53;7.53;;;2.97;;
36995;SDS011;22905;50.340;10.776;2023-09-18T15:31:53;4.93;;;2.20;;
36995;SDS011;22905;50.340;10.776;2023-09-18T15:36:53;6.28;;;3.03;;
36995;SDS011;22905;50.340;10.776;2023-09-18T15:41:56;6.85;;;2.45;;
36995;SDS011;22905;50.340;10.776;2023-09-18T15:46:56;6.97;;;2.13;;
36995;SDS011;22905;50.340;10.776;2023-09-18T15:51:56;7.75;;;2.67;;
36995;SDS011;22905;50.340;10.776;2023-09-18T15:56:57;8.70;;;2.77;;
36995;SDS011;22905;50.340;10.776;2023-09-18T16:01:57;3.63;;;1.80;;
36995;SDS011;22905;50.340;10.776;2023-09-18T16:06:57;4.80;;;2.22;;
36995;SDS011;22905;50.340;10.776;2023-09-18T16:11:58;5.37;;;2.10;;
36995;SDS011;22905;50.340;10.776;2023-09-18T16:16:58;6.28;;;2.42;;
36995;SDS011;22905;50.340;10.776;2023-09-18T16:22:03;7.13;;;1.85;;
36995;SDS011;22905;50.340;10.776;2023-09-18T16:27:04;9.52;;;2.05;;
36995;SDS011;22905;50.340;10.776;2023-09-18T16:32:07;8.50;;;1.98;;
36995;SDS011;22905;50.340;10.776;2023-09-18T16:37:08;4.75;;;1.55;;
36995;SDS011;22905;50.340;10.776;2023-09-18T16:42:08;3.67;;;1.60;;
36995;SDS011;22905;50.340;10.776;2023-09-18T16:47:08;1.70;;;1.35;;
36995;SDS011;22905;50.340;10.776;2023-09-18T16:52:09;3.38;;;1.58;;
36995;SDS011;22905;50.340;10.776;2023-09-18T16:57:10;3.60;;;1.52;;
36995;SDS011;22905;50.340;10.776;2023-09-18T17:02:18;5.35;;;1.60;;
36995;SDS011;22905;50.340;10.776;2023-09-18T17:07:20;2.13;;;1.52;;
36995;SDS011;22905;50.340;10.776;2023-09-18T17:12:20;6.18;;;1.98;;
36995;SDS011;22905;50.340;10.776;2023-09-18T17:17:20;3.07;;;1.63;;
36995;SDS011;22905;50.340;10.776;2023-09-18T17:22:21;5.38;;;1.95;;
36995;SDS011;22905;50.340;10.776;2023-09-18T17:27:21;5.85;;;1.98;;
36995;SDS011;22905;50.340;10.776;2023-09-18T17:32:21;2.45;;;1.58;;
36995;SDS011;22905;50.340;10.776;2023-09-18T17:37:22;4.40;;;1.63;;
36995;SDS011;22905;50.340;10.776;2023-09-18T17:42:25;6.40;;;1.92;;
36995;SDS011;22905;50.340;10.776;2023-09-18T17:47:26;3.85;;;2.15;;
36995;SDS011;22905;50.340;10.776;2023-09-18T17:52:27;4.57;;;1.90;;
36995;SDS011;22905;50.340;10.776;2023-09-18T17:57:28;5.50;;;1.67;;
36995;SDS011;22905;50.340;10.776;2023-09-18T18:02:29;4.68;;;1.85;;
36995;SDS011;22905;50.340;10.776;2023-09-18T18:07:30;3.15;;;2.05;;
36995;SDS011;22905;50.340;10.776;2023-09-18T18:12:32;1.90;;;1.30;;
36995;SDS011;22905;50.340;10.776;2023-09-18T18:17:33;7.25;;;2.17;;
36995;SDS011;22905;50.340;10.776;2023-09-18T18:22:34;6.70;;;1.60;;
36995;SDS011;22905;50.340;10.776;2023-09-18T18:27:34;3.95;;;2.20;;
36995;SDS011;22905;50.340;10.776;2023-09-18T18:32:34;6.43;;;2.43;;
36995;SDS011;22905;50.340;10.776;2023-09-18T18:37:35;9.50;;;4.20;;
36995;SDS011;22905;50.340;10.776;2023-09-18T18:42:36;6.00;;;1.90;;
36995;SDS011;22905;50.340;10.776;2023-09-18T18:47:36;4.45;;;2.08;;
36995;SDS011;22905;50.340;10.776;2023-09-18T18:52:36;6.85;;;2.17;;
36995;SDS011;22905;50.340;10.776;2023-09-18T18:57:37;5.07;;;2.28;;
36995;SDS011;22905;50.340;10.776;2023-09-18T19:02:38;5.20;;;2.47;;
36995;SDS011;22905;50.340;10.776;2023-09-18T19:07:40;8.10;;;2.30;;
36995;SDS011;22905;50.340;10.776;2023-09-18T19:12:40;4.03;;;2.20;;
36995;SDS011;22905;50.340;10.776;2023-09-18T19:17:40;8.50;;;2.13;;
36995;SDS011;22905;50.340;10.776;2023-09-18T19:22:41;7.43;;;2.55;;
36995;SDS011;22905;50.340;10.776;2023-09-18T19:27:41;7.57;;;3.22;;
36995;SDS011;22905;50.340;10.776;2023-09-18T19:32:42;7.38;;;3.25;;
36995;SDS011;22905;50.340;10.776;2023-09-18T19:37:42;4.05;;;2.78;;
36995;SDS011;22905;50.340;10.776;2023-09-18T19:42:42;6.72;;;3.63;;
36995;SDS011;22905;50.340;10.776;2023-09-18T19:47:43;10.97;;;3.20;;
36995;SDS011;22905;50.340;10.776;2023-09-18T19:52:43;8.57;;;3.15;;
36995;SDS011;22905;50.340;10.776;2023-09-18T19:57:43;7.53;;;3.33;;
36995;SDS011;22905;50.340;10.776;2023-09-18T20:02:44;9.47;;;3.47;;
36995;SDS011;22905;50.340;10.776;2023-09-18T20:07:46;9.50;;;3.75;;
36995;SDS011;22905;50.340;10.776;2023-09-18T20:12:47;6.80;;;3.40;;
36995;SDS011;22905;50.340;10.776;2023-09-18T20:17:48;9.48;;;3.75;;
36995;SDS011;22905;50.340;10.776;2023-09-18T20:22:51;12.70;;;4.78;;
36995;SDS011;22905;50.340;10.776;2023-09-18T20:27:51;9.17;;;5.27;;
36995;SDS011;22905;50.340;10.776;2023-09-18T20:32:52;8.03;;;5.13;;
36995;SDS011;22905;50.340;10.776;2023-09-18T20:37:52;9.85;;;4.80;;
36995;SDS011;22905;50.340;10.776;2023-09-18T20:42:52;11.80;;;6.03;;
36995;SDS011;22905;50.340;10.776;2023-09-18T20:47:53;10.30;;;5.07;;
36995;SDS011;22905;50.340;10.776;2023-09-18T20:52:53;9.57;;;5.40;;
36995;SDS011;22905;50.340;10.776;2023-09-18T20:57:53;10.38;;;4.40;;
36995;SDS011;22905;50.340;10.776;2023-09-18T21:02:54;8.70;;;5.00;;
36995;SDS011;22905;50.340;10.776;2023-09-18T21:07:54;7.95;;;4.68;;
36995;SDS011;22905;50.340;10.776;2023-09-18T21:12:54;11.02;;;4.68;;
36995;SDS011;22905;50.340;10.776;2023-09-18T21:17:55;6.53;;;4.53;;
36995;SDS011;22905;50.340;10.776;2023-09-18T21:22:59;9.70;;;4.00;;
36995;SDS011;22905;50.340;10.776;2023-09-18T21:28:06;6.82;;;3.90;;
36995;SDS011;22905;50.340;10.776;2023-09-18T21:33:06;5.93;;;3.37;;
36995;SDS011;22905;50.340;10.776;2023-09-18T21:38:06;7.07;;;3.80;;
36995;SDS011;22905;50.340;10.776;2023-09-18T21:43:07;12.00;;;4.17;;
36995;SDS011;22905;50.340;10.776;2023-09-18T21:48:07;10.57;;;4.53;;
36995;SDS011;22905;50.340;10.776;2023-09-18T21:53:07;10.05;;;4.88;;
36995;SDS011;22905;50.340;10.776;2023-09-18T21:58:08;14.50;;;5.75;;
36995;SDS011;22905;50.340;10.776;2023-09-18T22:03:09;7.97;;;5.00;;
36995;SDS011;22905;50.340;10.776;2023-09-18T22:08:09;10.57;;;4.75;;
36995;SDS011;22905;50.340;10.776;2023-09-18T22:13:10;12.30;;;5.73;;
36995;SDS011;22905;50.340;10.776;2023-09-18T22:18:11;12.73;;;6.38;;
36995;SDS011;22905;50.340;10.776;2023-09-18T22:23:12;14.77;;;5.25;;
36995;SDS011;22905;50.340;10.776;2023-09-18T22:28:13;9.65;;;5.50;;
36995;SDS011;22905;50.340;10.776;2023-09-18T22:33:15;6.13;;;3.60;;
36995;SDS011;22905;50.340;10.776;2023-09-18T22:38:33;12.00;;;4.00;;
36995;SDS011;22905;50.340;10.776;2023-09-18T22:54:46;6.00;;;3.10;;
36995;SDS011;22905;50.340;10.776;2023-09-18T22:59:47;4.37;;;2.43;;
36995;SDS011;22905;50.340;10.776;2023-09-18T23:04:49;2.55;;;2.15;;
36995;SDS011;22905;50.340;10.776;2023-09-18T23:09:49;9.23;;;2.97;;
36995;SDS011;22905;50.340;10.776;2023-09-18T23:14:50;3.88;;;2.38;;
36995;SDS011;22905;50.340;10.776;2023-09-18T23:19:51;4.00;;;1.65;;
36995;SDS011;22905;50.340;10.776;2023-09-18T23:24:51;4.40;;;1.38;;
36995;SDS011;22905;50.340;10.776;2023-09-18T23:29:53;1.58;;;1.17;;
36995;SDS011;22905;50.340;10.776;2023-09-18T23:34:54;1.98;;;0.80;;
36995;SDS011;22905;50.340;10.776;2023-09-18T23:39:59;1.92;;;0.85;;
36995;SDS011;22905;50.340;10.776;2023-09-18T23:44:59;1.13;;;0.80;;
36995;SDS011;22905;50.340;10.776;2023-09-18T23:50:07;2.20;;;0.90;;
36995;SDS011;22905;50.340;10.776;2023-09-18T23:55:08;1.70;;;0.80;;
